Aviation Digital Data Service (ADDS)

Output produced by METARs form (0006 UTC 25 April 2019)
found at http://www.aviationweather.gov/metar/data/
 
METAR text: LPPT 250000Z 25008KT 9999 FEW030 12/08 Q1010
Conditions at: LPPT (LISBON/PORTELA , PT) observed 0000 UTC 25 April 2019
Temperature: 12.0°C (54°F)
Dewpoint: 8.0°C (46°F) [RH = 76%]
Pressure (altimeter): 29.82 inches Hg (1010.0 mb)
Winds: from the WSW (250 degrees) at 9 MPH (8 knots; 4.1 m/s)
Visibility: 6 or more miles (10+ km)
Ceiling: at least 12,000 feet AGL
Clouds: few clouds at 3000 feet AGL
Weather: no significant weather observed at this time

METAR text: LPPT 242330Z 26010KT 9999 FEW022 12/08 Q1010
Conditions at: LPPT (LISBON/PORTELA , PT) observed 2330 UTC 24 April 2019
Temperature: 12.0°C (54°F)
Dewpoint: 8.0°C (46°F) [RH = 76%]
Pressure (altimeter): 29.82 inches Hg (1010.0 mb)
Winds: from the W (260 degrees) at 12 MPH (10 knots; 5.1 m/s)
Visibility: 6 or more miles (10+ km)
Ceiling: at least 12,000 feet AGL
Clouds: few clouds at 2200 feet AGL
Weather: no significant weather observed at this time

METAR text: LPPT 242300Z 25009KT 220V280 9999 FEW025 12/09 Q1009
Conditions at: LPPT (LISBON/PORTELA , PT) observed 2300 UTC 24 April 2019
Temperature: 12.0°C (54°F)
Dewpoint: 9.0°C (48°F) [RH = 82%]
Pressure (altimeter): 29.79 inches Hg (1009.0 mb)
Winds: from the WSW (250 degrees) at 10 MPH (9 knots; 4.6 m/s)
Visibility: 6 or more miles (10+ km)
Ceiling: at least 12,000 feet AGL
Clouds: few clouds at 2500 feet AGL
Weather: no significant weather observed at this time

METAR text: LPPT 242230Z 25009KT 9999 FEW025 12/09 Q1009
Conditions at: LPPT (LISBON/PORTELA , PT) observed 2230 UTC 24 April 2019
Temperature: 12.0°C (54°F)
Dewpoint: 9.0°C (48°F) [RH = 82%]
Pressure (altimeter): 29.79 inches Hg (1009.0 mb)
Winds: from the WSW (250 degrees) at 10 MPH (9 knots; 4.6 m/s)
Visibility: 6 or more miles (10+ km)
Ceiling: at least 12,000 feet AGL
Clouds: few clouds at 2500 feet AGL
Weather: no significant weather observed at this time

METAR text: LPPT 242200Z 25010KT 9999 FEW022 13/10 Q1009
Conditions at: LPPT (LISBON/PORTELA , PT) observed 2200 UTC 24 April 2019
Temperature: 13.0°C (55°F)
Dewpoint: 10.0°C (50°F) [RH = 82%]
Pressure (altimeter): 29.79 inches Hg (1009.0 mb)
Winds: from the WSW (250 degrees) at 12 MPH (10 knots; 5.1 m/s)
Visibility: 6 or more miles (10+ km)
Ceiling: at least 12,000 feet AGL
Clouds: few clouds at 2200 feet AGL
Weather: no significant weather observed at this time

METAR text: LPPT 242130Z 25008KT 9999 SCT022 13/10 Q1009
Conditions at: LPPT (LISBON/PORTELA , PT) observed 2130 UTC 24 April 2019
Temperature: 13.0°C (55°F)
Dewpoint: 10.0°C (50°F) [RH = 82%]
Pressure (altimeter): 29.79 inches Hg (1009.0 mb)
Winds: from the WSW (250 degrees) at 9 MPH (8 knots; 4.1 m/s)
Visibility: 6 or more miles (10+ km)
Ceiling: at least 12,000 feet AGL
Clouds: scattered clouds at 2200 feet AGL
Weather: no significant weather observed at this time

METAR text: LPPT 242100Z 24009KT 9999 FEW015 13/11 Q1008
Conditions at: LPPT (LISBON/PORTELA , PT) observed 2100 UTC 24 April 2019
Temperature: 13.0°C (55°F)
Dewpoint: 11.0°C (52°F) [RH = 88%]
Pressure (altimeter): 29.76 inches Hg (1008.0 mb)
Winds: from the WSW (240 degrees) at 10 MPH (9 knots; 4.6 m/s)
Visibility: 6 or more miles (10+ km)
Ceiling: at least 12,000 feet AGL
Clouds: few clouds at 1500 feet AGL
Weather: no significant weather observed at this time

METAR text: LPPT 242030Z 25008KT 9999 FEW012 13/12 Q1008
Conditions at: LPPT (LISBON/PORTELA , PT) observed 2030 UTC 24 April 2019
Temperature: 13.0°C (55°F)
Dewpoint: 12.0°C (54°F) [RH = 94%]
Pressure (altimeter): 29.76 inches Hg (1008.0 mb)
Winds: from the WSW (250 degrees) at 9 MPH (8 knots; 4.1 m/s)
Visibility: 6 or more miles (10+ km)
Ceiling: at least 12,000 feet AGL
Clouds: few clouds at 1200 feet AGL
Weather: no significant weather observed at this time

METAR text: LPPT 242000Z 25009KT 9999 FEW009 SCT015 13/12 Q1007
Conditions at: LPPT (LISBON/PORTELA , PT) observed 2000 UTC 24 April 2019
Temperature: 13.0°C (55°F)
Dewpoint: 12.0°C (54°F) [RH = 94%]
Pressure (altimeter): 29.73 inches Hg (1007.0 mb)
Winds: from the WSW (250 degrees) at 10 MPH (9 knots; 4.6 m/s)
Visibility: 6 or more miles (10+ km)
Ceiling: at least 12,000 feet AGL
Clouds: few clouds at 900 feet AGL
scattered clouds at 1500 feet AGL
Weather: no significant weather observed at this time

METAR text: LPPT 241930Z 24012KT 9999 FEW009 SCT013 13/12 Q1007
Conditions at: LPPT (LISBON/PORTELA , PT) observed 1930 UTC 24 April 2019
Temperature: 13.0°C (55°F)
Dewpoint: 12.0°C (54°F) [RH = 94%]
Pressure (altimeter): 29.73 inches Hg (1007.0 mb)
Winds: from the WSW (240 degrees) at 14 MPH (12 knots; 6.2 m/s)
Visibility: 6 or more miles (10+ km)
Ceiling: at least 12,000 feet AGL
Clouds: few clouds at 900 feet AGL
scattered clouds at 1300 feet AGL
Weather: no significant weather observed at this time

METAR text: LPPT 241900Z 24009KT 9999 FEW015 13/11 Q1006
Conditions at: LPPT (LISBON/PORTELA , PT) observed 1900 UTC 24 April 2019
Temperature: 13.0°C (55°F)
Dewpoint: 11.0°C (52°F) [RH = 88%]
Pressure (altimeter): 29.70 inches Hg (1006.0 mb)
Winds: from the WSW (240 degrees) at 10 MPH (9 knots; 4.6 m/s)
Visibility: 6 or more miles (10+ km)
Ceiling: at least 12,000 feet AGL
Clouds: few clouds at 1500 feet AGL
Weather: no significant weather observed at this time

METAR text: LPPT 241830Z 26010KT 230V290 9999 FEW008 13/12 Q1006
Conditions at: LPPT (LISBON/PORTELA , PT) observed 1830 UTC 24 April 2019
Temperature: 13.0°C (55°F)
Dewpoint: 12.0°C (54°F) [RH = 94%]
Pressure (altimeter): 29.70 inches Hg (1006.0 mb)
Winds: from the W (260 degrees) at 12 MPH (10 knots; 5.1 m/s)
Visibility: 6 or more miles (10+ km)
Ceiling: at least 12,000 feet AGL
Clouds: few clouds at 800 feet AGL
Weather: no significant weather observed at this time

METAR text: LPPT 241800Z 27010G22KT 230V300 9999 -RA FEW008 BKN035 13/11 Q1006 RERA
Conditions at: LPPT (LISBON/PORTELA , PT) observed 1800 UTC 24 April 2019
Temperature: 13.0°C (55°F)
Dewpoint: 11.0°C (52°F) [RH = 88%]
Pressure (altimeter): 29.70 inches Hg (1006.0 mb)
Winds: from the W (270 degrees) at 12 MPH (10 knots; 5.1 m/s)
gusting to 25 MPH (22 knots; 11.3 m/s)
Visibility: 6 or more miles (10+ km)
Ceiling: 3500 feet AGL
Clouds: few clouds at 800 feet AGL
broken clouds at 3500 feet AGL
Weather: -RA  (light rain)

METAR text: LPPT 241730Z 23015KT 4000 RADZ SCT005 SCT010 BKN025 14/13 Q1005 WS R21
Conditions at: LPPT (LISBON/PORTELA , PT) observed 1730 UTC 24 April 2019
Temperature: 14.0°C (57°F)
Dewpoint: 13.0°C (55°F) [RH = 94%]
Pressure (altimeter): 29.68 inches Hg (1005.0 mb)
Winds: from the SW (230 degrees) at 17 MPH (15 knots; 7.7 m/s)
Visibility: 2.49 miles (4.01 km)
Ceiling: 2500 feet AGL
Clouds: scattered clouds at 500 feet AGL
scattered clouds at 1000 feet AGL
broken clouds at 2500 feet AGL
Weather: RA DZ  (moderate rain, moderate drizzle)

METAR text: LPPT 241700Z 24016KT 8000 -DZ FEW014 BKN018 FEW025TCU 15/13 Q1005 WS R21
Conditions at: LPPT (LISBON/PORTELA , PT) observed 1700 UTC 24 April 2019
Temperature: 15.0°C (59°F)
Dewpoint: 13.0°C (55°F) [RH = 88%]
Pressure (altimeter): 29.68 inches Hg (1005.0 mb)
Winds: from the WSW (240 degrees) at 18 MPH (16 knots; 8.2 m/s)
Visibility: 5 miles ( 8 km)
Ceiling: 1800 feet AGL
Clouds: few clouds at 1400 feet AGL
broken clouds at 1800 feet AGL
few clouds at 2500 feet AGL
Weather: -DZ  (light drizzle)

METAR text: LPPT 241630Z 23018G28KT 9999 -RA FEW012 SCT015 FEW020TCU 16/14 Q1005 WS R21
Conditions at: LPPT (LISBON/PORTELA , PT) observed 1630 UTC 24 April 2019
Temperature: 16.0°C (61°F)
Dewpoint: 14.0°C (57°F) [RH = 88%]
Pressure (altimeter): 29.68 inches Hg (1005.0 mb)
Winds: from the SW (230 degrees) at 21 MPH (18 knots; 9.3 m/s)
gusting to 32 MPH (28 knots; 14.4 m/s)
Visibility: 6 or more miles (10+ km)
Ceiling: at least 12,000 feet AGL
Clouds: few clouds at 1200 feet AGL
scattered clouds at 1500 feet AGL
few clouds at 2000 feet AGL
Weather: -RA  (light rain)

METAR text: LPPT 241600Z 23017KT 9999 FEW009 BKN015 FEW020TCU 16/14 Q1005 WS R21
Conditions at: LPPT (LISBON/PORTELA , PT) observed 1600 UTC 24 April 2019
Temperature: 16.0°C (61°F)
Dewpoint: 14.0°C (57°F) [RH = 88%]
Pressure (altimeter): 29.68 inches Hg (1005.0 mb)
Winds: from the SW (230 degrees) at 20 MPH (17 knots; 8.7 m/s)
Visibility: 6 or more miles (10+ km)
Ceiling: 1500 feet AGL
Clouds: few clouds at 900 feet AGL
broken clouds at 1500 feet AGL
few clouds at 2000 feet AGL
Weather: no significant weather observed at this time

METAR text: LPPT 241530Z 23018KT 7000 -DZ FEW009 BKN012 FEW020TCU 15/14 Q1005 WS R21
Conditions at: LPPT (LISBON/PORTELA , PT) observed 1530 UTC 24 April 2019
Temperature: 15.0°C (59°F)
Dewpoint: 14.0°C (57°F) [RH = 94%]
Pressure (altimeter): 29.68 inches Hg (1005.0 mb)
Winds: from the SW (230 degrees) at 21 MPH (18 knots; 9.3 m/s)
Visibility: 4 miles ( 7 km)
Ceiling: 1200 feet AGL
Clouds: few clouds at 900 feet AGL
broken clouds at 1200 feet AGL
few clouds at 2000 feet AGL
Weather: -DZ  (light drizzle)

METAR text: LPPT 241500Z 23014KT 9999 -RADZ FEW012 BKN015 FEW025TCU 15/13 Q1005 WS R21
Conditions at: LPPT (LISBON/PORTELA , PT) observed 1500 UTC 24 April 2019
Temperature: 15.0°C (59°F)
Dewpoint: 13.0°C (55°F) [RH = 88%]
Pressure (altimeter): 29.68 inches Hg (1005.0 mb)
Winds: from the SW (230 degrees) at 16 MPH (14 knots; 7.2 m/s)
Visibility: 6 or more miles (10+ km)
Ceiling: 1500 feet AGL
Clouds: few clouds at 1200 feet AGL
broken clouds at 1500 feet AGL
few clouds at 2500 feet AGL
Weather: -RA -DZ  (light rain, light drizzle)

METAR text: LPPT 241430Z 24019KT 9999 FEW020 FEW025TCU BKN030 17/12 Q1005 WS R21
Conditions at: LPPT (LISBON/PORTELA , PT) observed 1430 UTC 24 April 2019
Temperature: 17.0°C (63°F)
Dewpoint: 12.0°C (54°F) [RH = 72%]
Pressure (altimeter): 29.68 inches Hg (1005.0 mb)
Winds: from the WSW (240 degrees) at 22 MPH (19 knots; 9.8 m/s)
Visibility: 6 or more miles (10+ km)
Ceiling: 3000 feet AGL
Clouds: few clouds at 2000 feet AGL
few clouds at 2500 feet AGL
broken clouds at 3000 feet AGL
Weather: no significant weather observed at this time

METAR text: LPPT 241400Z 23021G31KT 9999 FEW018 BKN028 17/12 Q1005
Conditions at: LPPT (LISBON/PORTELA , PT) observed 1400 UTC 24 April 2019
Temperature: 17.0°C (63°F)
Dewpoint: 12.0°C (54°F) [RH = 72%]
Pressure (altimeter): 29.68 inches Hg (1005.0 mb)
Winds: from the SW (230 degrees) at 24 MPH (21 knots; 10.8 m/s)
gusting to 36 MPH (31 knots; 15.9 m/s)
Visibility: 6 or more miles (10+ km)
Ceiling: 2800 feet AGL
Clouds: few clouds at 1800 feet AGL
broken clouds at 2800 feet AGL
Weather: no significant weather observed at this time

METAR text: LPPT 241330Z 23019KT 200V260 9999 FEW016 BKN020 17/12 Q1005
Conditions at: LPPT (LISBON/PORTELA , PT) observed 1330 UTC 24 April 2019
Temperature: 17.0°C (63°F)
Dewpoint: 12.0°C (54°F) [RH = 72%]
Pressure (altimeter): 29.68 inches Hg (1005.0 mb)
Winds: from the SW (230 degrees) at 22 MPH (19 knots; 9.8 m/s)
Visibility: 6 or more miles (10+ km)
Ceiling: 2000 feet AGL
Clouds: few clouds at 1600 feet AGL
broken clouds at 2000 feet AGL
Weather: no significant weather observed at this time

METAR text: LPPT 241300Z 23019G29KT 9999 FEW022 SCT030 16/11 Q1005
Conditions at: LPPT (LISBON/PORTELA , PT) observed 1300 UTC 24 April 2019
Temperature: 16.0°C (61°F)
Dewpoint: 11.0°C (52°F) [RH = 72%]
Pressure (altimeter): 29.68 inches Hg (1005.0 mb)
Winds: from the SW (230 degrees) at 22 MPH (19 knots; 9.8 m/s)
gusting to 33 MPH (29 knots; 14.9 m/s)
Visibility: 6 or more miles (10+ km)
Ceiling: at least 12,000 feet AGL
Clouds: few clouds at 2200 feet AGL
scattered clouds at 3000 feet AGL
Weather: no significant weather observed at this time

METAR text: LPPT 241230Z 23014KT 210V270 9999 FEW030 17/11 Q1004
Conditions at: LPPT (LISBON/PORTELA , PT) observed 1230 UTC 24 April 2019
Temperature: 17.0°C (63°F)
Dewpoint: 11.0°C (52°F) [RH = 68%]
Pressure (altimeter): 29.65 inches Hg (1004.0 mb)
Winds: from the SW (230 degrees) at 16 MPH (14 knots; 7.2 m/s)
Visibility: 6 or more miles (10+ km)
Ceiling: at least 12,000 feet AGL
Clouds: few clouds at 3000 feet AGL
Weather: no significant weather observed at this time

METAR text: LPPT 241200Z 23011KT 200V270 9999 SCT032 15/11 Q1005
Conditions at: LPPT (LISBON/PORTELA , PT) observed 1200 UTC 24 April 2019
Temperature: 15.0°C (59°F)
Dewpoint: 11.0°C (52°F) [RH = 77%]
Pressure (altimeter): 29.68 inches Hg (1005.0 mb)
Winds: from the SW (230 degrees) at 13 MPH (11 knots; 5.7 m/s)
Visibility: 6 or more miles (10+ km)
Ceiling: at least 12,000 feet AGL
Clouds: scattered clouds at 3200 feet AGL
Weather: no significant weather observed at this time

METAR text: LPPT 241130Z 26013KT 230V290 9999 FEW013 BKN020 FEW025TCU 14/12 Q1005
Conditions at: LPPT (LISBON/PORTELA , PT) observed 1130 UTC 24 April 2019
Temperature: 14.0°C (57°F)
Dewpoint: 12.0°C (54°F) [RH = 88%]
Pressure (altimeter): 29.68 inches Hg (1005.0 mb)
Winds: from the W (260 degrees) at 15 MPH (13 knots; 6.7 m/s)
Visibility: 6 or more miles (10+ km)
Ceiling: 2000 feet AGL
Clouds: few clouds at 1300 feet AGL
broken clouds at 2000 feet AGL
few clouds at 2500 feet AGL
Weather: no significant weather observed at this time

METAR text: LPPT 241100Z 24018KT 9999 -RA FEW012 BKN018 FEW020TCU 15/13 Q1004
Conditions at: LPPT (LISBON/PORTELA , PT) observed 1100 UTC 24 April 2019
Temperature: 15.0°C (59°F)
Dewpoint: 13.0°C (55°F) [RH = 88%]
Pressure (altimeter): 29.65 inches Hg (1004.0 mb)
Winds: from the WSW (240 degrees) at 21 MPH (18 knots; 9.3 m/s)
Visibility: 6 or more miles (10+ km)
Ceiling: 1800 feet AGL
Clouds: few clouds at 1200 feet AGL
broken clouds at 1800 feet AGL
few clouds at 2000 feet AGL
Weather: -RA  (light rain)

METAR text: LPPT 241030Z 23018G28KT 9999 FEW012 BKN018 16/13 Q1004
Conditions at: LPPT (LISBON/PORTELA , PT) observed 1030 UTC 24 April 2019
Temperature: 16.0°C (61°F)
Dewpoint: 13.0°C (55°F) [RH = 82%]
Pressure (altimeter): 29.65 inches Hg (1004.0 mb)
Winds: from the SW (230 degrees) at 21 MPH (18 knots; 9.3 m/s)
gusting to 32 MPH (28 knots; 14.4 m/s)
Visibility: 6 or more miles (10+ km)
Ceiling: 1800 feet AGL
Clouds: few clouds at 1200 feet AGL
broken clouds at 1800 feet AGL
Weather: no significant weather observed at this time

METAR text: LPPT 241000Z 23018KT 200V260 9999 FEW012 BKN020 16/13 Q1004
Conditions at: LPPT (LISBON/PORTELA , PT) observed 1000 UTC 24 April 2019
Temperature: 16.0°C (61°F)
Dewpoint: 13.0°C (55°F) [RH = 82%]
Pressure (altimeter): 29.65 inches Hg (1004.0 mb)
Winds: from the SW (230 degrees) at 21 MPH (18 knots; 9.3 m/s)
Visibility: 6 or more miles (10+ km)
Ceiling: 2000 feet AGL
Clouds: few clouds at 1200 feet AGL
broken clouds at 2000 feet AGL
Weather: no significant weather observed at this time

METAR text: LPPT 240930Z 23019KT 9999 FEW012 BKN016 16/13 Q1004
Conditions at: LPPT (LISBON/PORTELA , PT) observed 0930 UTC 24 April 2019
Temperature: 16.0°C (61°F)
Dewpoint: 13.0°C (55°F) [RH = 82%]
Pressure (altimeter): 29.65 inches Hg (1004.0 mb)
Winds: from the SW (230 degrees) at 22 MPH (19 knots; 9.8 m/s)
Visibility: 6 or more miles (10+ km)
Ceiling: 1600 feet AGL
Clouds: few clouds at 1200 feet AGL
broken clouds at 1600 feet AGL
Weather: no significant weather observed at this time

METAR text: LPPT 240900Z 23016KT 9999 VCSH FEW012 SCT014 16/13 Q1003
Conditions at: LPPT (LISBON/PORTELA , PT) observed 0900 UTC 24 April 2019
Temperature: 16.0°C (61°F)
Dewpoint: 13.0°C (55°F) [RH = 82%]
Pressure (altimeter): 29.62 inches Hg (1003.0 mb)
Winds: from the SW (230 degrees) at 18 MPH (16 knots; 8.2 m/s)
Visibility: 6 or more miles (10+ km)
Ceiling: at least 12,000 feet AGL
Clouds: few clouds at 1200 feet AGL
scattered clouds at 1400 feet AGL
Weather: VCSH  (showers in vicinity)

METAR text: LPPT 240830Z 24013KT 210V270 9999 SCT014 15/13 Q1003
Conditions at: LPPT (LISBON/PORTELA , PT) observed 0830 UTC 24 April 2019
Temperature: 15.0°C (59°F)
Dewpoint: 13.0°C (55°F) [RH = 88%]
Pressure (altimeter): 29.62 inches Hg (1003.0 mb)
Winds: from the WSW (240 degrees) at 15 MPH (13 knots; 6.7 m/s)
Visibility: 6 or more miles (10+ km)
Ceiling: at least 12,000 feet AGL
Clouds: scattered clouds at 1400 feet AGL
Weather: no significant weather observed at this time

METAR text: LPPT 240800Z 24014KT 9999 FEW012 BKN016 14/13 Q1003
Conditions at: LPPT (LISBON/PORTELA , PT) observed 0800 UTC 24 April 2019
Temperature: 14.0°C (57°F)
Dewpoint: 13.0°C (55°F) [RH = 94%]
Pressure (altimeter): 29.62 inches Hg (1003.0 mb)
Winds: from the WSW (240 degrees) at 16 MPH (14 knots; 7.2 m/s)
Visibility: 6 or more miles (10+ km)
Ceiling: 1600 feet AGL
Clouds: few clouds at 1200 feet AGL
broken clouds at 1600 feet AGL
Weather: no significant weather observed at this time

METAR text: LPPT 240730Z 24014KT 9999 FEW008 BKN014 14/13 Q1002
Conditions at: LPPT (LISBON/PORTELA , PT) observed 0730 UTC 24 April 2019
Temperature: 14.0°C (57°F)
Dewpoint: 13.0°C (55°F) [RH = 94%]
Pressure (altimeter): 29.59 inches Hg (1002.0 mb)
Winds: from the WSW (240 degrees) at 16 MPH (14 knots; 7.2 m/s)
Visibility: 6 or more miles (10+ km)
Ceiling: 1400 feet AGL
Clouds: few clouds at 800 feet AGL
broken clouds at 1400 feet AGL
Weather: no significant weather observed at this time

METAR text: LPPT 240700Z 24016G26KT 210V280 9999 VCSH SCT006 BKN010 14/13 Q1002 RERADZ
Conditions at: LPPT (LISBON/PORTELA , PT) observed 0700 UTC 24 April 2019
Temperature: 14.0°C (57°F)
Dewpoint: 13.0°C (55°F) [RH = 94%]
Pressure (altimeter): 29.59 inches Hg (1002.0 mb)
Winds: from the WSW (240 degrees) at 18 MPH (16 knots; 8.2 m/s)
gusting to 30 MPH (26 knots; 13.4 m/s)
Visibility: 6 or more miles (10+ km)
Ceiling: 1000 feet AGL
Clouds: scattered clouds at 600 feet AGL
broken clouds at 1000 feet AGL
Weather: VCSH  (showers in vicinity)

METAR text: LPPT 240630Z 23019G29KT 6000 2500N RADZ SCT005 BKN010 14/13 Q1001
Conditions at: LPPT (LISBON/PORTELA , PT) observed 0630 UTC 24 April 2019
Temperature: 14.0°C (57°F)
Dewpoint: 13.0°C (55°F) [RH = 94%]
Pressure (altimeter): 29.56 inches Hg (1001.0 mb)
Winds: from the SW (230 degrees) at 22 MPH (19 knots; 9.8 m/s)
gusting to 33 MPH (29 knots; 14.9 m/s)
Visibility: 4 miles ( 6 km)
Ceiling: 1000 feet AGL
Clouds: scattered clouds at 500 feet AGL
broken clouds at 1000 feet AGL
Weather: RA DZ  (moderate rain, moderate drizzle)

METAR text: LPPT 240600Z 23018KT 9999 SCT007 BKN012 14/13 Q1001
Conditions at: LPPT (LISBON/PORTELA , PT) observed 0600 UTC 24 April 2019
Temperature: 14.0°C (57°F)
Dewpoint: 13.0°C (55°F) [RH = 94%]
Pressure (altimeter): 29.56 inches Hg (1001.0 mb)
Winds: from the SW (230 degrees) at 21 MPH (18 knots; 9.3 m/s)
Visibility: 6 or more miles (10+ km)
Ceiling: 1200 feet AGL
Clouds: scattered clouds at 700 feet AGL
broken clouds at 1200 feet AGL
Weather: no significant weather observed at this time

METAR text: LPPT 240530Z 22019G30KT 9000 -RADZ BKN006 BKN008 14/13 Q1001
Conditions at: LPPT (LISBON/PORTELA , PT) observed 0530 UTC 24 April 2019
Temperature: 14.0°C (57°F)
Dewpoint: 13.0°C (55°F) [RH = 94%]
Pressure (altimeter): 29.56 inches Hg (1001.0 mb)
Winds: from the SW (220 degrees) at 22 MPH (19 knots; 9.8 m/s)
gusting to 34 MPH (30 knots; 15.4 m/s)
Visibility: 6 miles ( 9 km)
Ceiling: 600 feet AGL
Clouds: broken clouds at 600 feet AGL
broken clouds at 800 feet AGL
Weather: -RA -DZ  (light rain, light drizzle)

METAR text: LPPT 240500Z 23017KT 6000 -RADZ BKN006 BKN008 14/13 Q1001
Conditions at: LPPT (LISBON/PORTELA , PT) observed 0500 UTC 24 April 2019
Temperature: 14.0°C (57°F)
Dewpoint: 13.0°C (55°F) [RH = 94%]
Pressure (altimeter): 29.56 inches Hg (1001.0 mb)
Winds: from the SW (230 degrees) at 20 MPH (17 knots; 8.7 m/s)
Visibility: 4 miles ( 6 km)
Ceiling: 600 feet AGL
Clouds: broken clouds at 600 feet AGL
broken clouds at 800 feet AGL
Weather: -RA -DZ  (light rain, light drizzle)

METAR text: LPPT 240430Z 23020KT 7000 -DZ BKN006 BKN010 13/13 Q1001
Conditions at: LPPT (LISBON/PORTELA , PT) observed 0430 UTC 24 April 2019
Temperature: 13.0°C (55°F)
Dewpoint: 13.0°C (55°F) [RH = 100%]
Pressure (altimeter): 29.56 inches Hg (1001.0 mb)
Winds: from the SW (230 degrees) at 23 MPH (20 knots; 10.3 m/s)
Visibility: 4 miles ( 7 km)
Ceiling: 600 feet AGL
Clouds: broken clouds at 600 feet AGL
broken clouds at 1000 feet AGL
Weather: -DZ  (light drizzle)

METAR text: LPPT 240400Z 23019G29KT 7000 -RADZ BKN006 BKN010 13/12 Q1001 RERADZ
Conditions at: LPPT (LISBON/PORTELA , PT) observed 0400 UTC 24 April 2019
Temperature: 13.0°C (55°F)
Dewpoint: 12.0°C (54°F) [RH = 94%]
Pressure (altimeter): 29.56 inches Hg (1001.0 mb)
Winds: from the SW (230 degrees) at 22 MPH (19 knots; 9.8 m/s)
gusting to 33 MPH (29 knots; 14.9 m/s)
Visibility: 4 miles ( 7 km)
Ceiling: 600 feet AGL
Clouds: broken clouds at 600 feet AGL
broken clouds at 1000 feet AGL
Weather: -RA -DZ  (light rain, light drizzle)

METAR text: LPPT 240330Z 21019KT 7000 RADZ BKN008 BKN012 13/12 Q1001
Conditions at: LPPT (LISBON/PORTELA , PT) observed 0330 UTC 24 April 2019
Temperature: 13.0°C (55°F)
Dewpoint: 12.0°C (54°F) [RH = 94%]
Pressure (altimeter): 29.56 inches Hg (1001.0 mb)
Winds: from the SSW (210 degrees) at 22 MPH (19 knots; 9.8 m/s)
Visibility: 4 miles ( 7 km)
Ceiling: 800 feet AGL
Clouds: broken clouds at 800 feet AGL
broken clouds at 1200 feet AGL
Weather: RA DZ  (moderate rain, moderate drizzle)

METAR text: LPPT 240300Z 22017KT 9999 -DZ BKN010 BKN015 13/12 Q1001
Conditions at: LPPT (LISBON/PORTELA , PT) observed 0300 UTC 24 April 2019
Temperature: 13.0°C (55°F)
Dewpoint: 12.0°C (54°F) [RH = 94%]
Pressure (altimeter): 29.56 inches Hg (1001.0 mb)
Winds: from the SW (220 degrees) at 20 MPH (17 knots; 8.7 m/s)
Visibility: 6 or more miles (10+ km)
Ceiling: 1000 feet AGL
Clouds: broken clouds at 1000 feet AGL
broken clouds at 1500 feet AGL
Weather: -DZ  (light drizzle)

METAR text: LPPT 240230Z 22018KT 8000 -RA SCT008 SCT016 BKN020 13/11 Q1002
Conditions at: LPPT (LISBON/PORTELA , PT) observed 0230 UTC 24 April 2019
Temperature: 13.0°C (55°F)
Dewpoint: 11.0°C (52°F) [RH = 88%]
Pressure (altimeter): 29.59 inches Hg (1002.0 mb)
Winds: from the SW (220 degrees) at 21 MPH (18 knots; 9.3 m/s)
Visibility: 5 miles ( 8 km)
Ceiling: 2000 feet AGL
Clouds: scattered clouds at 800 feet AGL
scattered clouds at 1600 feet AGL
broken clouds at 2000 feet AGL
Weather: -RA  (light rain)

METAR text: LPPT 240200Z 21017KT 9999 -RA FEW012 SCT016 BKN020 13/11 Q1002
Conditions at: LPPT (LISBON/PORTELA , PT) observed 0200 UTC 24 April 2019
Temperature: 13.0°C (55°F)
Dewpoint: 11.0°C (52°F) [RH = 88%]
Pressure (altimeter): 29.59 inches Hg (1002.0 mb)
Winds: from the SSW (210 degrees) at 20 MPH (17 knots; 8.7 m/s)
Visibility: 6 or more miles (10+ km)
Ceiling: 2000 feet AGL
Clouds: few clouds at 1200 feet AGL
scattered clouds at 1600 feet AGL
broken clouds at 2000 feet AGL
Weather: -RA  (light rain)

METAR text: LPPT 240130Z 22014KT 9999 -RA FEW015 SCT020 13/10 Q1002
Conditions at: LPPT (LISBON/PORTELA , PT) observed 0130 UTC 24 April 2019
Temperature: 13.0°C (55°F)
Dewpoint: 10.0°C (50°F) [RH = 82%]
Pressure (altimeter): 29.59 inches Hg (1002.0 mb)
Winds: from the SW (220 degrees) at 16 MPH (14 knots; 7.2 m/s)
Visibility: 6 or more miles (10+ km)
Ceiling: at least 12,000 feet AGL
Clouds: few clouds at 1500 feet AGL
scattered clouds at 2000 feet AGL
Weather: -RA  (light rain)

METAR text: LPPT 240100Z 21015KT 9999 SCT020 BKN030 13/10 Q1003
Conditions at: LPPT (LISBON/PORTELA , PT) observed 0100 UTC 24 April 2019
Temperature: 13.0°C (55°F)
Dewpoint: 10.0°C (50°F) [RH = 82%]
Pressure (altimeter): 29.62 inches Hg (1003.0 mb)
Winds: from the SSW (210 degrees) at 17 MPH (15 knots; 7.7 m/s)
Visibility: 6 or more miles (10+ km)
Ceiling: 3000 feet AGL
Clouds: scattered clouds at 2000 feet AGL
broken clouds at 3000 feet AGL
Weather: no significant weather observed at this time

METAR text: LPPT 240030Z 22013KT 9999 SCT024 12/09 Q1003
Conditions at: LPPT (LISBON/PORTELA , PT) observed 0030 UTC 24 April 2019
Temperature: 12.0°C (54°F)
Dewpoint: 9.0°C (48°F) [RH = 82%]
Pressure (altimeter): 29.62 inches Hg (1003.0 mb)
Winds: from the SW (220 degrees) at 15 MPH (13 knots; 6.7 m/s)
Visibility: 6 or more miles (10+ km)
Ceiling: at least 12,000 feet AGL
Clouds: scattered clouds at 2400 feet AGL
Weather: no significant weather observed at this time

METAR text: LPPT 240000Z 22011KT 9999 FEW026 12/09 Q1004
Conditions at: LPPT (LISBON/PORTELA , PT) observed 0000 UTC 24 April 2019
Temperature: 12.0°C (54°F)
Dewpoint: 9.0°C (48°F) [RH = 82%]
Pressure (altimeter): 29.65 inches Hg (1004.0 mb)
Winds: from the SW (220 degrees) at 13 MPH (11 knots; 5.7 m/s)
Visibility: 6 or more miles (10+ km)
Ceiling: at least 12,000 feet AGL
Clouds: few clouds at 2600 feet AGL
Weather: no significant weather observed at this time

METAR text: LPPT 232330Z 23007KT 200V260 9999 FEW026 12/09 Q1004
Conditions at: LPPT (LISBON/PORTELA , PT) observed 2330 UTC 23 April 2019
Temperature: 12.0°C (54°F)
Dewpoint: 9.0°C (48°F) [RH = 82%]
Pressure (altimeter): 29.65 inches Hg (1004.0 mb)
Winds: from the SW (230 degrees) at 8 MPH (7 knots; 3.6 m/s)
Visibility: 6 or more miles (10+ km)
Ceiling: at least 12,000 feet AGL
Clouds: few clouds at 2600 feet AGL
Weather: no significant weather observed at this time

METAR text: LPPT 232300Z 24003KT 200V270 9999 SCT028 11/10 Q1005
Conditions at: LPPT (LISBON/PORTELA , PT) observed 2300 UTC 23 April 2019
Temperature: 11.0°C (52°F)
Dewpoint: 10.0°C (50°F) [RH = 94%]
Pressure (altimeter): 29.68 inches Hg (1005.0 mb)
Winds: from the WSW (240 degrees) at 3 MPH (3 knots; 1.5 m/s)
Visibility: 6 or more miles (10+ km)
Ceiling: at least 12,000 feet AGL
Clouds: scattered clouds at 2800 feet AGL
Weather: no significant weather observed at this time

METAR text: LPPT 232230Z 24004KT 9999 FEW016 SCT025 11/09 Q1005
Conditions at: LPPT (LISBON/PORTELA , PT) observed 2230 UTC 23 April 2019
Temperature: 11.0°C (52°F)
Dewpoint: 9.0°C (48°F) [RH = 87%]
Pressure (altimeter): 29.68 inches Hg (1005.0 mb)
Winds: from the WSW (240 degrees) at 5 MPH (4 knots; 2.1 m/s)
Visibility: 6 or more miles (10+ km)
Ceiling: at least 12,000 feet AGL
Clouds: few clouds at 1600 feet AGL
scattered clouds at 2500 feet AGL
Weather: no significant weather observed at this time

METAR text: LPPT 232200Z 23006G16KT 190V280 9999 -SHRA FEW016 BKN026 11/09 Q1005
Conditions at: LPPT (LISBON/PORTELA , PT) observed 2200 UTC 23 April 2019
Temperature: 11.0°C (52°F)
Dewpoint: 9.0°C (48°F) [RH = 87%]
Pressure (altimeter): 29.68 inches Hg (1005.0 mb)
Winds: from the SW (230 degrees) at 7 MPH (6 knots; 3.1 m/s)
gusting to 18 MPH (16 knots; 8.2 m/s)
Visibility: 6 or more miles (10+ km)
Ceiling: 2600 feet AGL
Clouds: few clouds at 1600 feet AGL
broken clouds at 2600 feet AGL
Weather: -SHRA  (light rain showers)

METAR text: LPPT 232130Z 25005KT 9999 -RA FEW020 BKN026 11/09 Q1005
Conditions at: LPPT (LISBON/PORTELA , PT) observed 2130 UTC 23 April 2019
Temperature: 11.0°C (52°F)
Dewpoint: 9.0°C (48°F) [RH = 87%]
Pressure (altimeter): 29.68 inches Hg (1005.0 mb)
Winds: from the WSW (250 degrees) at 6 MPH (5 knots; 2.6 m/s)
Visibility: 6 or more miles (10+ km)
Ceiling: 2600 feet AGL
Clouds: few clouds at 2000 feet AGL
broken clouds at 2600 feet AGL
Weather: -RA  (light rain)

METAR text: LPPT 232100Z 22008KT 9999 -RA FEW025 SCT040 12/08 Q1005
Conditions at: LPPT (LISBON/PORTELA , PT) observed 2100 UTC 23 April 2019
Temperature: 12.0°C (54°F)
Dewpoint: 8.0°C (46°F) [RH = 76%]
Pressure (altimeter): 29.68 inches Hg (1005.0 mb)
Winds: from the SW (220 degrees) at 9 MPH (8 knots; 4.1 m/s)
Visibility: 6 or more miles (10+ km)
Ceiling: at least 12,000 feet AGL
Clouds: few clouds at 2500 feet AGL
scattered clouds at 4000 feet AGL
Weather: -RA  (light rain)

METAR text: LPPT 232030Z 22008KT CAVOK 11/07 Q1005
Conditions at: LPPT (LISBON/PORTELA , PT) observed 2030 UTC 23 April 2019
Temperature: 11.0°C (52°F)
Dewpoint: 7.0°C (45°F) [RH = 76%]
Pressure (altimeter): 29.68 inches Hg (1005.0 mb)
Winds: from the SW (220 degrees) at 9 MPH (8 knots; 4.1 m/s)
Visibility: 6 or more miles (10+ km)
Ceiling: ceiling and visibility are OK
Clouds: unknown
Weather: no significant weather observed at this time

METAR text: LPPT 232000Z 23008KT 9999 FEW044 11/06 Q1005
Conditions at: LPPT (LISBON/PORTELA , PT) observed 2000 UTC 23 April 2019
Temperature: 11.0°C (52°F)
Dewpoint: 6.0°C (43°F) [RH = 71%]
Pressure (altimeter): 29.68 inches Hg (1005.0 mb)
Winds: from the SW (230 degrees) at 9 MPH (8 knots; 4.1 m/s)
Visibility: 6 or more miles (10+ km)
Ceiling: at least 12,000 feet AGL
Clouds: few clouds at 4400 feet AGL
Weather: no significant weather observed at this time

METAR text: LPPT 231930Z 24008KT 9999 FEW025 11/06 Q1004
Conditions at: LPPT (LISBON/PORTELA , PT) observed 1930 UTC 23 April 2019
Temperature: 11.0°C (52°F)
Dewpoint: 6.0°C (43°F) [RH = 71%]
Pressure (altimeter): 29.65 inches Hg (1004.0 mb)
Winds: from the WSW (240 degrees) at 9 MPH (8 knots; 4.1 m/s)
Visibility: 6 or more miles (10+ km)
Ceiling: at least 12,000 feet AGL
Clouds: few clouds at 2500 feet AGL
Weather: no significant weather observed at this time

METAR text: LPPT 231900Z 24011KT 220V280 9999 FEW025 FEW030TCU 12/06 Q1004
Conditions at: LPPT (LISBON/PORTELA , PT) observed 1900 UTC 23 April 2019
Temperature: 12.0°C (54°F)
Dewpoint: 6.0°C (43°F) [RH = 67%]
Pressure (altimeter): 29.65 inches Hg (1004.0 mb)
Winds: from the WSW (240 degrees) at 13 MPH (11 knots; 5.7 m/s)
Visibility: 6 or more miles (10+ km)
Ceiling: at least 12,000 feet AGL
Clouds: few clouds at 2500 feet AGL
few clouds at 3000 feet AGL
Weather: no significant weather observed at this time

METAR text: LPPT 231830Z 24011KT 210V270 9999 FEW025 FEW030TCU 12/06 Q1004
Conditions at: LPPT (LISBON/PORTELA , PT) observed 1830 UTC 23 April 2019
Temperature: 12.0°C (54°F)
Dewpoint: 6.0°C (43°F) [RH = 67%]
Pressure (altimeter): 29.65 inches Hg (1004.0 mb)
Winds: from the WSW (240 degrees) at 13 MPH (11 knots; 5.7 m/s)
Visibility: 6 or more miles (10+ km)
Ceiling: at least 12,000 feet AGL
Clouds: few clouds at 2500 feet AGL
few clouds at 3000 feet AGL
Weather: no significant weather observed at this time

METAR text: LPPT 231800Z 27012KT 230V290 9999 FEW020 FEW025CB SCT038 13/05 Q1004
Conditions at: LPPT (LISBON/PORTELA , PT) observed 1800 UTC 23 April 2019
Temperature: 13.0°C (55°F)
Dewpoint: 5.0°C (41°F) [RH = 58%]
Pressure (altimeter): 29.65 inches Hg (1004.0 mb)
Winds: from the W (270 degrees) at 14 MPH (12 knots; 6.2 m/s)
Visibility: 6 or more miles (10+ km)
Ceiling: at least 12,000 feet AGL
Clouds: few clouds at 2000 feet AGL
few clouds at 2500 feet AGL
scattered clouds at 3800 feet AGL
Weather: no significant weather observed at this time

METAR text: LPPT 231730Z 27013G24KT 9999 FEW034 SCT042 13/05 Q1004
Conditions at: LPPT (LISBON/PORTELA , PT) observed 1730 UTC 23 April 2019
Temperature: 13.0°C (55°F)
Dewpoint: 5.0°C (41°F) [RH = 58%]
Pressure (altimeter): 29.65 inches Hg (1004.0 mb)
Winds: from the W (270 degrees) at 15 MPH (13 knots; 6.7 m/s)
gusting to 28 MPH (24 knots; 12.3 m/s)
Visibility: 6 or more miles (10+ km)
Ceiling: at least 12,000 feet AGL
Clouds: few clouds at 3400 feet AGL
scattered clouds at 4200 feet AGL
Weather: no significant weather observed at this time

METAR text: LPPT 231700Z 28011KT 250V320 9999 FEW038 FEW040TCU 14/05 Q1004
Conditions at: LPPT (LISBON/PORTELA , PT) observed 1700 UTC 23 April 2019
Temperature: 14.0°C (57°F)
Dewpoint: 5.0°C (41°F) [RH = 55%]
Pressure (altimeter): 29.65 inches Hg (1004.0 mb)
Winds: from the W (280 degrees) at 13 MPH (11 knots; 5.7 m/s)
Visibility: 6 or more miles (10+ km)
Ceiling: at least 12,000 feet AGL
Clouds: few clouds at 3800 feet AGL
few clouds at 4000 feet AGL
Weather: no significant weather observed at this time

METAR text: LPPT 231630Z 28010KT 240V320 9999 FEW036 FEW040TCU 14/05 Q1004
Conditions at: LPPT (LISBON/PORTELA , PT) observed 1630 UTC 23 April 2019
Temperature: 14.0°C (57°F)
Dewpoint: 5.0°C (41°F) [RH = 55%]
Pressure (altimeter): 29.65 inches Hg (1004.0 mb)
Winds: from the W (280 degrees) at 12 MPH (10 knots; 5.1 m/s)
Visibility: 6 or more miles (10+ km)
Ceiling: at least 12,000 feet AGL
Clouds: few clouds at 3600 feet AGL
few clouds at 4000 feet AGL
Weather: no significant weather observed at this time

METAR text: LPPT 231600Z 27013KT 230V320 9999 FEW032 FEW038TCU 14/04 Q1003
Conditions at: LPPT (LISBON/PORTELA , PT) observed 1600 UTC 23 April 2019
Temperature: 14.0°C (57°F)
Dewpoint: 4.0°C (39°F) [RH = 51%]
Pressure (altimeter): 29.62 inches Hg (1003.0 mb)
Winds: from the W (270 degrees) at 15 MPH (13 knots; 6.7 m/s)
Visibility: 6 or more miles (10+ km)
Ceiling: at least 12,000 feet AGL
Clouds: few clouds at 3200 feet AGL
few clouds at 3800 feet AGL
Weather: no significant weather observed at this time

METAR text: LPPT 231530Z 28011KT 240V300 9999 FEW032 FEW037TCU 14/05 Q1003
Conditions at: LPPT (LISBON/PORTELA , PT) observed 1530 UTC 23 April 2019
Temperature: 14.0°C (57°F)
Dewpoint: 5.0°C (41°F) [RH = 55%]
Pressure (altimeter): 29.62 inches Hg (1003.0 mb)
Winds: from the W (280 degrees) at 13 MPH (11 knots; 5.7 m/s)
Visibility: 6 or more miles (10+ km)
Ceiling: at least 12,000 feet AGL
Clouds: few clouds at 3200 feet AGL
few clouds at 3700 feet AGL
Weather: no significant weather observed at this time

METAR text: LPPT 231500Z 27010KT 230V310 9999 SCT035 FEW040TCU 14/05 Q1003
Conditions at: LPPT (LISBON/PORTELA , PT) observed 1500 UTC 23 April 2019
Temperature: 14.0°C (57°F)
Dewpoint: 5.0°C (41°F) [RH = 55%]
Pressure (altimeter): 29.62 inches Hg (1003.0 mb)
Winds: from the W (270 degrees) at 12 MPH (10 knots; 5.1 m/s)
Visibility: 6 or more miles (10+ km)
Ceiling: at least 12,000 feet AGL
Clouds: scattered clouds at 3500 feet AGL
few clouds at 4000 feet AGL
Weather: no significant weather observed at this time

METAR text: LPPT 231430Z 28011KT 9999 SCT035 FEW040TCU 14/07 Q1003
Conditions at: LPPT (LISBON/PORTELA , PT) observed 1430 UTC 23 April 2019
Temperature: 14.0°C (57°F)
Dewpoint: 7.0°C (45°F) [RH = 63%]
Pressure (altimeter): 29.62 inches Hg (1003.0 mb)
Winds: from the W (280 degrees) at 13 MPH (11 knots; 5.7 m/s)
Visibility: 6 or more miles (10+ km)
Ceiling: at least 12,000 feet AGL
Clouds: scattered clouds at 3500 feet AGL
few clouds at 4000 feet AGL
Weather: no significant weather observed at this time

METAR text: LPPT 231400Z 28012KT 240V310 9999 BKN035 FEW040TCU 13/06 Q1003
Conditions at: LPPT (LISBON/PORTELA , PT) observed 1400 UTC 23 April 2019
Temperature: 13.0°C (55°F)
Dewpoint: 6.0°C (43°F) [RH = 62%]
Pressure (altimeter): 29.62 inches Hg (1003.0 mb)
Winds: from the W (280 degrees) at 14 MPH (12 knots; 6.2 m/s)
Visibility: 6 or more miles (10+ km)
Ceiling: 3500 feet AGL
Clouds: broken clouds at 3500 feet AGL
few clouds at 4000 feet AGL
Weather: no significant weather observed at this time

METAR text: LPPT 231330Z 28011KT 240V320 9999 BKN030 FEW035TCU 14/06 Q1003
Conditions at: LPPT (LISBON/PORTELA , PT) observed 1330 UTC 23 April 2019
Temperature: 14.0°C (57°F)
Dewpoint: 6.0°C (43°F) [RH = 58%]
Pressure (altimeter): 29.62 inches Hg (1003.0 mb)
Winds: from the W (280 degrees) at 13 MPH (11 knots; 5.7 m/s)
Visibility: 6 or more miles (10+ km)
Ceiling: 3000 feet AGL
Clouds: broken clouds at 3000 feet AGL
few clouds at 3500 feet AGL
Weather: no significant weather observed at this time

METAR text: LPPT 231300Z 29012G23KT 260V320 9999 BKN030 FEW035CB 13/05 Q1003
Conditions at: LPPT (LISBON/PORTELA , PT) observed 1300 UTC 23 April 2019
Temperature: 13.0°C (55°F)
Dewpoint: 5.0°C (41°F) [RH = 58%]
Pressure (altimeter): 29.62 inches Hg (1003.0 mb)
Winds: from the WNW (290 degrees) at 14 MPH (12 knots; 6.2 m/s)
gusting to 26 MPH (23 knots; 11.8 m/s)
Visibility: 6 or more miles (10+ km)
Ceiling: 3000 feet AGL
Clouds: broken clouds at 3000 feet AGL
few clouds at 3500 feet AGL
Weather: no significant weather observed at this time

METAR text: LPPT 231230Z 28013KT 240V320 9999 FEW028 FEW033CB 14/06 Q1003
Conditions at: LPPT (LISBON/PORTELA , PT) observed 1230 UTC 23 April 2019
Temperature: 14.0°C (57°F)
Dewpoint: 6.0°C (43°F) [RH = 58%]
Pressure (altimeter): 29.62 inches Hg (1003.0 mb)
Winds: from the W (280 degrees) at 15 MPH (13 knots; 6.7 m/s)
Visibility: 6 or more miles (10+ km)
Ceiling: at least 12,000 feet AGL
Clouds: few clouds at 2800 feet AGL
few clouds at 3300 feet AGL
Weather: no significant weather observed at this time

Forecast for: LPPT (LISBON/PORTELA , PT)
Text: TAF LPPT 242300Z 2500/2606 27012KT 9999 FEW020
Forecast period: 0000 to 1600 UTC 25 April 2019
Forecast type: FROM: standard forecast or significant change
Winds: from the W (270 degrees) at 14 MPH (12 knots; 6.2 m/s)
Visibility: 6 or more miles 10+ km)
Ceiling: at least 12,000 feet AGL
Clouds: few clouds at 2000 feet AGL
Weather: no significant weather forecast for this period
Text: TEMPO 2508/2516 28017G32KT 8000 SHRA BKN020 FEW025CB
Forecast period: 0800 to 1600 UTC 25 April 2019
Forecast type: TEMPORARY: The following changes expected for less than half the time period
Winds: from the W (280 degrees) at 20 MPH (17 knots; 8.7 m/s)
gusting to 37 MPH (32 knots; 16.5 m/s)
Visibility: 5 miles (8 km)
Ceiling: 2000 feet AGL
Clouds: broken clouds at 2000 feet AGL
few clouds at 2500 feet AGL
Weather: SHRA  (rain showers)
Text: BECMG 2516/2519 30008KT
Forecast period: 1600 UTC 25 April 2019 to 0400 UTC 26 April 2019
Forecast type: BECOMING: Conditions expected to become as follows by 1900 UTC 25 April 2019
Winds: from the WNW (300 degrees) at 9 MPH (8 knots; 4.1 m/s)
Visibility: 6 or more miles 10+ km)
Ceiling: at least 12,000 feet AGL
Clouds: few clouds at 2000 feet AGL
Weather: no significant weather forecast for this period
Text: BECMG 2604/2606 34008KT
Forecast period: 0400 to 0600 UTC 26 April 2019
Forecast type: BECOMING: Conditions expected to become as follows by 0600 UTC 26 April 2019
Winds: from the NNW (340 degrees) at 9 MPH (8 knots; 4.1 m/s)
Visibility: 6 or more miles 10+ km)
Ceiling: at least 12,000 feet AGL
Clouds: few clouds at 2000 feet AGL
Weather: no significant weather forecast for this period